Latest Coastal Weather Observations for McCluer Island

IDD60701

Issued at 1:41 pm CST Wednesday 18 January 2017 (issued every 10 minutes, with the page automatically refreshed every 10 minutes)

About coastal observations | Map of coastal stations | Coastal observations for NT | Marine services | Other Formats
Station Details ID: 014274 Name: MCCLUER ISLAND Lat: -11.05 Lon: 132.98 Height: 1.4 m
Data from the previous 72 hours. | See also: Recent months at McCluer Island
Date/Time
CST
Temp
°C
Wind Pressure Rain since
9am
mm
Weather Cloud Vis
km
Sea
Height
m
Swell
Dir  Spd
kts
Gust
kts
hPa Trend Height
m
Period
s
Dir
18/01:30pm 29.4 NNW 12 14 1009.4 - 0.2 - - - - - - -
18/01:00pm 28.9 NNW 14 17 1009.6 - 0.2 - - - - - - -
18/12:30pm 28.6 NNW 16 20 1010.2 - 0.2 - - - - - - -
18/12:00pm 28.8 N 13 15 1010.4 - 0.0 - - - - - - -
18/11:30am 28.9 N 13 15 1010.8 - 0.0 - - - - - - -
18/11:00am 27.7 N 11 13 1011.3 - 0.0 - - - - - - -
18/10:30am 28.4 NNW 11 13 1011.3 - 0.0 - - - - - - -
18/10:00am 28.4 WNW 13 17 1011.6 - 0.0 - - - - - - -
18/09:30am 29.7 NNW 14 16 1011.3 - 0.0 - - - - - - -
18/09:00am 29.8 NW 12 14 1011.4 - 4.8 - - - - - - -
18/08:30am 29.6 NNW 8 9 1011.3 - 4.8 - - - - - - -
18/08:00am 28.4 NW 10 12 1010.9 - 4.8 - - - - - - -
18/07:30am 28.3 NW 11 14 1010.5 - 4.8 - - - - - - -
18/07:00am 28.3 WNW 14 17 1010.2 - 4.8 - - - - - - -
18/06:30am 28.5 NW 15 18 1009.9 - 4.8 - - - - - - -
18/06:00am 28.7 NNW 13 15 1009.4 - 4.8 - - - - - - -
18/05:30am 28.8 NNW 13 16 1009.0 - 4.8 - - - - - - -
18/05:00am 28.8 NNW 12 15 1008.6 - 4.8 - - - - - - -
18/04:30am 28.9 NNW 12 14 1008.4 - 4.8 - - - - - - -
18/04:00am 28.8 NW 11 13 1008.5 - 4.8 - - - - - - -
18/03:30am 28.8 NNW 12 13 1008.6 - 4.8 - - - - - - -
18/03:00am 28.7 NNW 12 14 1008.6 - 4.8 - - - - - - -
18/02:30am 28.6 NW 13 16 1008.7 - 4.8 - - - - - - -
18/02:00am 28.9 NW 13 15 1008.7 - 4.8 - - - - - - -
18/01:30am 28.8 NW 11 13 1008.8 - 4.8 - - - - - - -
18/01:00am 28.8 NW 13 15 1009.1 - 4.8 - - - - - - -
18/12:30am 29.1 NW 15 17 1009.3 - 4.8 - - - - - - -
18/12:00am 28.9 NW 15 17 1009.5 - 4.8 - - - - - - -
 
Date/Time
CST
Temp
°C
Wind Pressure Rain since
9am
mm
Weather Cloud Vis
km
Sea
Height
m
Swell
Dir  Spd
kts
Gust
kts
hPa Trend Height
m
Period
s
Dir
17/11:30pm 28.8 NW 13 16 1009.8 - 4.8 - - - - - - -
17/11:00pm 29.1 NW 15 17 1010.0 - 4.8 - - - - - - -
17/10:30pm 29.1 NW 14 16 1009.8 - 4.8 - - - - - - -
17/10:00pm 28.7 NW 13 15 1009.6 - 4.8 - - - - - - -
17/09:30pm 29.0 NNW 14 16 1009.5 - 4.8 - - - - - - -
17/09:00pm 28.8 NNW 14 16 1009.6 - 4.8 - - - - - - -
17/08:30pm 28.9 NNW 13 15 1009.5 - 4.8 - - - - - - -
17/08:00pm 28.8 NNW 14 16 1009.3 - 4.8 - - - - - - -
17/07:30pm 29.2 NNW 13 15 1008.9 - 4.8 - - - - - - -
17/07:00pm 29.2 NNW 14 16 1008.5 - 4.8 - - - - - - -
17/06:30pm 29.0 N 11 13 1008.3 - 4.8 - - - - - - -
17/06:00pm 28.6 N 10 12 1008.0 - 4.8 - - - - - - -
17/05:30pm 26.9 NNW 7 9 1007.7 - 4.8 - - - - - - -
17/05:00pm 25.9 NW 10 15 1007.4 - 4.8 - - - - - - -
17/04:30pm 27.6 NNW 23 27 1007.4 - 0.2 - - - - - - -
17/04:28pm 27.8 NNW 23 27 1007.5 - 0.2 - - - - - - -
17/04:27pm 28.3 N 15 25 1007.5 - 0.2 - - - - - - -
17/04:00pm 28.9 NNE 13 15 1007.2 - 0.0 - - - - - - -
17/03:30pm 29.9 NW 9 11 1007.6 - 0.0 - - - - - - -
17/03:00pm 30.3 NNE 6 7 1007.9 - 0.0 - - - - - - -
17/02:30pm 30.7 NNW 15 18 1007.8 - 0.0 - - - - - - -
17/02:00pm 30.8 N 7 9 1008.1 - 0.0 - - - - - - -
17/01:30pm 30.3 N 8 9 1008.6 - 0.0 - - - - - - -
17/01:00pm 30.4 NNW 8 11 1008.5 - 0.0 - - - - - - -
17/12:30pm 30.8 NNW 7 10 1008.8 - 0.0 - - - - - - -
17/12:00pm 31.5 NNW 4 5 1008.9 - 0.0 - - - - - - -
17/11:30am 31.3 W 3 4 1009.1 - 0.0 - - - - - - -
17/11:00am 31.1 WSW 3 4 1009.5 - 0.0 - - - - - - -
17/10:30am 30.6 W 1 3 1009.5 - 0.0 - - - - - - -
17/10:00am 30.5 WSW 3 4 1009.9 - 0.0 - - - - - - -
17/09:30am 30.6 SW 5 6 1010.1 - 0.0 - - - - - - -
17/09:00am 30.1 WSW 4 5 1010.0 - 5.8 - - - - - - -
17/08:30am 29.4 WSW 4 5 1009.9 - 5.8 - - - - - - -
17/08:00am 29.1 WSW 3 4 1009.5 - 5.8 - - - - - - -
17/07:30am 29.0 SW 3 4 1009.1 - 5.8 - - - - - - -
17/07:00am 28.9 WSW 6 8 1008.6 - 5.8 - - - - - - -
17/06:30am 28.7 SE 5 9 1008.2 - 5.8 - - - - - - -
17/06:00am 28.8 W 7 8 1007.5 - 5.8 - - - - - - -
17/05:30am 28.7 W 7 8 1006.9 - 5.8 - - - - - - -
17/05:00am 28.6 W 5 7 1006.7 - 5.8 - - - - - - -
17/04:30am 28.6 W 5 7 1006.7 - 5.8 - - - - - - -
17/04:00am 28.7 W 10 12 1006.5 - 5.8 - - - - - - -
17/03:30am 28.7 WSW 11 14 1006.6 - 5.8 - - - - - - -
17/03:00am 27.9 W 14 19 1006.7 - 5.8 - - - - - - -
17/02:50am 28.7 W 15 21 1006.6 - 5.8 - - - - - - -
17/02:30am 26.9 SW 7 11 1006.9 - 5.8 - - - - - - -
17/02:10am 28.7 W 18 22 1006.8 - 5.4 - - - - - - -
17/02:00am 28.6 WNW 5 11 1007.0 - 5.4 - - - - - - -
17/01:30am 28.3 NNW 8 11 1007.3 - 5.4 - - - - - - -
17/01:00am 28.9 W 12 14 1007.2 - 5.0 - - - - - - -
17/12:30am 29.1 NW 10 12 1007.4 - 5.0 - - - - - - -
17/12:00am 28.9 NW 11 12 1007.6 - 5.0 - - - - - - -
 
Date/Time
CST
Temp
°C
Wind Pressure Rain since
9am
mm
Weather Cloud Vis
km
Sea
Height
m
Swell
Dir  Spd
kts
Gust
kts
hPa Trend Height
m
Period
s
Dir
16/11:30pm 29.2 NW 11 13 1007.8 - 5.0 - - - - - - -
16/10:30pm 29.1 NNW 11 13 1007.9 - 5.0 - - - - - - -
16/10:00pm 28.2 CALM 0 3 1007.8 - 5.0 - - - - - - -
16/09:30pm 27.8 SE 1 4 1007.7 - 5.0 - - - - - - -
16/09:00pm 29.1 WNW 6 8 1007.9 - 5.0 - - - - - - -
16/08:30pm 29.1 W 9 12 1007.9 - 5.0 - - - - - - -
16/08:00pm 28.5 NNW 6 7 1007.9 - 5.0 - - - - - - -
16/07:30pm 28.5 NNW 9 11 1007.7 - 5.0 - - - - - - -
16/07:00pm 28.4 NNW 8 10 1007.5 - 5.0 - - - - - - -
16/06:30pm 28.4 N 7 10 1007.1 - 5.0 - - - - - - -
16/06:00pm 28.5 NW 8 9 1006.9 - 5.0 - - - - - - -
16/05:30pm 28.0 NW 7 8 1006.3 - 5.0 - - - - - - -
16/05:00pm 27.6 WNW 10 11 1005.7 - 5.0 - - - - - - -
16/04:30pm 26.6 NW 13 15 1005.3 - 5.0 - - - - - - -
16/04:00pm 26.4 N 9 19 1005.8 - 4.2 - - - - - - -
16/03:37pm 27.9 N 15 25 1006.1 - 0.0 - - - - - - -
16/03:30pm 29.4 N 12 15 1006.1 - 0.0 - - - - - - -
16/03:00pm 30.1 N 13 16 1006.1 - 0.0 - - - - - - -
16/02:30pm 31.3 W 7 9 1006.7 - 0.0 - - - - - - -
16/02:00pm 32.4 W 11 13 1006.9 - 0.0 - - - - - - -
16/01:30pm 31.1 W 11 13 1007.3 - 0.0 - - - - - - -
16/01:00pm 32.3 WNW 8 11 1007.5 - 0.0 - - - - - - -
16/12:30pm 30.9 W 10 13 1007.7 - 0.0 - - - - - - -
16/12:00pm 31.3 W 10 12 1008.4 - 0.0 - - - - - - -
16/11:30am 31.0 NW 11 13 1008.5 - 0.0 - - - - - - -
16/11:00am 30.9 NW 12 14 1008.6 - 0.0 - - - - - - -
16/10:30am 30.5 NW 12 14 1008.7 - 0.0 - - - - - - -
16/10:00am 30.2 NW 10 13 1008.8 - 0.0 - - - - - - -
16/09:30am 30.0 NW 10 12 1008.8 - 0.0 - - - - - - -
16/09:00am 29.9 NW 11 13 1008.6 - 0.0 - - - - - - -
16/08:30am 29.5 NW 10 13 1008.4 - 0.0 - - - - - - -
16/08:00am 29.4 WNW 10 12 1008.2 - 0.0 - - - - - - -
16/07:30am 29.2 WNW 10 12 1007.8 - 0.0 - - - - - - -
16/07:00am 29.3 WNW 10 11 1007.6 - 0.0 - - - - - - -
16/06:30am 29.3 WNW 11 12 1007.7 - 0.0 - - - - - - -
16/06:00am 29.0 WNW 11 12 1007.3 - 0.0 - - - - - - -
16/05:30am 29.1 WNW 12 13 1007.0 - 0.0 - - - - - - -
16/05:00am 29.1 WNW 12 15 1006.6 - 0.0 - - - - - - -
16/04:30am 29.0 WNW 11 13 1006.5 - 0.0 - - - - - - -
16/04:00am 29.0 WNW 12 15 1006.4 - 0.0 - - - - - - -
16/03:30am 29.0 WNW 13 15 1006.4 - 0.0 - - - - - - -
16/03:00am 28.9 WNW 13 15 1006.5 - 0.0 - - - - - - -
16/02:30am 29.0 WNW 13 15 1006.4 - 0.0 - - - - - - -
16/02:00am 29.0 NW 12 14 1006.3 - 0.0 - - - - - - -
16/01:30am 28.9 NW 12 13 1006.4 - 0.0 - - - - - - -
16/01:00am 29.2 NW 11 13 1006.8 - 0.0 - - - - - - -
16/12:30am 29.1 NW 10 12 1007.0 - 0.0 - - - - - - -
16/12:00am 29.2 NNW 10 11 1007.2 - 0.0 - - - - - - -
 
Date/Time
CST
Temp
°C
Wind Pressure Rain since
9am
mm
Weather Cloud Vis
km
Sea
Height
m
Swell
Dir  Spd
kts
Gust
kts
hPa Trend Height
m
Period
s
Dir
15/11:30pm 29.2 NNW 9 11 1007.8 - 0.0 - - - - - - -
15/11:00pm 28.9 N 7 9 1007.9 - 0.0 - - - - - - -
15/10:30pm 29.0 NNW 7 9 1007.9 - 0.0 - - - - - - -
15/10:00pm 29.1 NNW 7 8 1007.8 - 0.0 - - - - - - -
15/09:30pm 29.2 NNW 8 8 1007.6 - 0.0 - - - - - - -
15/09:00pm 29.1 NNW 8 9 1007.5 - 0.0 - - - - - - -
15/08:30pm 29.2 NW 8 10 1007.5 - 0.0 - - - - - - -
15/08:00pm 29.4 NW 9 11 1007.4 - 0.0 - - - - - - -
15/07:30pm 29.4 NW 11 12 1007.4 - 0.0 - - - - - - -
15/07:00pm 29.4 NW 10 11 1007.1 - 0.0 - - - - - - -
15/06:30pm 29.6 NW 10 11 1006.9 - 0.0 - - - - - - -
15/06:00pm 29.8 NW 9 11 1006.7 - 0.0 - - - - - - -
15/05:30pm 30.6 NNW 10 12 1006.5 - 0.0 - - - - - - -
15/05:00pm 30.8 N 11 13 1006.5 - 0.0 - - - - - - -
15/04:30pm 30.6 NNW 11 14 1006.3 - 0.0 - - - - - - -
15/04:00pm 31.6 NNW 12 14 1006.4 - 0.0 - - - - - - -
15/03:30pm 31.4 NW 11 14 1006.7 - 0.0 - - - - - - -
15/03:00pm 31.9 NW 10 13 1007.2 - 0.0 - - - - - - -
15/02:30pm 31.4 N 8 9 1007.8 - 0.0 - - - - - - -
15/02:00pm 31.5 N 7 9 1008.1 - 0.0 - - - - - - -

Other Formats:

Comma delimited format used in spreadsheet applications
http://www.bom.gov.au/fwo/IDD60701/IDD60701.94135.axf

JavaScript Object Notation format (JSON) in row-major order
http://www.bom.gov.au/fwo/IDD60701/IDD60701.94135.json